createdAt,value
2018-08-28T00:01:49.835Z,6.65
2018-08-28T00:04:23.203Z,7.22
2018-08-28T00:06:56.624Z,6.72
2018-08-28T00:09:30.009Z,6.42
2018-08-28T00:12:03.393Z,6.30
2018-08-28T00:14:36.800Z,8.48
2018-08-28T00:17:10.361Z,6.30
2018-08-28T00:19:43.664Z,5.80
2018-08-28T00:22:17.049Z,6.65
2018-08-28T00:24:50.490Z,5.70
2018-08-28T00:27:23.875Z,6.78
2018-08-28T00:29:57.563Z,6.55
2018-08-28T00:32:30.928Z,5.92
2018-08-28T00:35:04.329Z,6.58
2018-08-28T00:37:37.789Z,6.30
2018-08-28T00:40:11.189Z,9.25
2018-08-28T00:42:44.579Z,6.78
2018-08-28T00:45:18.046Z,6.67
2018-08-28T00:47:51.502Z,7.03
2018-08-28T00:50:24.933Z,7.00
2018-08-28T00:52:58.310Z,6.40
2018-08-28T00:55:31.812Z,6.25
2018-08-28T00:58:05.329Z,7.03
2018-08-28T01:00:38.726Z,7.00
2018-08-28T01:03:12.106Z,6.20
2018-08-28T01:05:45.511Z,5.60
2018-08-28T01:08:18.877Z,7.30
2018-08-28T01:10:52.261Z,6.05
2018-08-28T01:13:25.624Z,6.08
2018-08-28T01:15:59.000Z,6.50
2018-08-28T01:18:32.383Z,5.97
2018-08-28T01:21:05.758Z,8.85
2018-08-28T01:23:39.194Z,6.35
2018-08-28T01:26:12.676Z,6.53
2018-08-28T01:28:46.020Z,6.80
2018-08-28T01:31:19.408Z,7.25
2018-08-28T01:33:52.757Z,5.90
2018-08-28T01:36:26.145Z,7.30
2018-08-28T01:38:59.540Z,6.17
2018-08-28T01:41:33.032Z,6.28
2018-08-28T01:44:06.388Z,6.08
2018-08-28T01:46:39.797Z,5.90
2018-08-28T01:49:13.172Z,6.50
2018-08-28T01:51:46.551Z,5.62
2018-08-28T01:54:19.908Z,6.25
2018-08-28T01:56:53.301Z,6.40
2018-08-28T01:59:26.703Z,7.60
2018-08-28T02:02:00.092Z,7.08
2018-08-28T02:04:33.484Z,11.05
2018-08-28T02:07:06.903Z,5.90
2018-08-28T02:09:40.260Z,5.72
2018-08-28T02:12:13.655Z,6.05
2018-08-28T02:14:47.028Z,6.83
2018-08-28T02:17:20.425Z,5.70
2018-08-28T02:19:53.792Z,6.00
2018-08-28T02:22:27.190Z,5.72
2018-08-28T02:25:00.561Z,6.53
2018-08-28T02:27:33.939Z,5.65
2018-08-28T02:30:07.312Z,5.65
2018-08-28T02:32:40.804Z,7.75
2018-08-28T02:35:14.145Z,5.03
2018-08-28T02:37:47.574Z,5.22
2018-08-28T02:40:20.936Z,5.33
2018-08-28T02:42:54.379Z,5.50
2018-08-28T02:45:27.781Z,6.35
2018-08-28T02:48:01.267Z,6.95
2018-08-28T02:50:34.674Z,5.12
2018-08-28T02:53:08.112Z,7.37
2018-08-28T02:55:41.565Z,5.95
2018-08-28T02:58:14.996Z,6.15
2018-08-28T03:00:48.374Z,5.22
2018-08-28T03:03:21.773Z,5.70
2018-08-28T03:05:55.149Z,5.65
2018-08-28T03:08:28.539Z,14.07
2018-08-28T03:11:01.959Z,5.17
2018-08-28T03:13:35.336Z,6.08
2018-08-28T03:16:08.841Z,5.60
2018-08-28T03:18:42.113Z,5.87
2018-08-28T03:21:15.593Z,5.58
2018-08-28T03:23:48.938Z,8.35
2018-08-28T03:26:22.323Z,5.60
2018-08-28T03:28:55.744Z,5.50
2018-08-28T03:31:29.071Z,5.25
2018-08-28T03:34:02.845Z,6.55
2018-08-28T03:36:36.204Z,5.20
2018-08-28T03:39:09.639Z,4.92
2018-08-28T03:41:43.028Z,5.55
2018-08-28T03:44:16.396Z,5.85
2018-08-28T03:46:50.090Z,5.72
2018-08-28T03:49:23.452Z,7.40
2018-08-28T03:51:56.852Z,5.87
2018-08-28T03:54:30.256Z,5.28
2018-08-28T03:57:03.644Z,5.80
2018-08-28T03:59:37.077Z,7.95
2018-08-28T04:02:10.532Z,4.47
2018-08-28T04:04:43.911Z,5.00
2018-08-28T04:07:17.332Z,6.35
2018-08-28T04:09:50.707Z,5.70
2018-08-28T04:12:24.105Z,5.85
2018-08-28T04:14:57.479Z,4.83
2018-08-28T04:17:30.920Z,5.78
2018-08-28T04:20:04.328Z,4.90
2018-08-28T04:22:37.736Z,5.05
2018-08-28T04:25:11.143Z,4.62
2018-08-28T04:27:44.774Z,5.10
2018-08-28T04:30:18.225Z,4.67
2018-08-28T04:32:51.670Z,4.92
2018-08-28T04:35:25.027Z,4.95
2018-08-28T04:37:58.419Z,4.20
2018-08-28T04:40:31.842Z,4.95
2018-08-28T04:43:05.261Z,4.75
2018-08-28T04:45:38.627Z,4.92
2018-08-28T04:48:12.045Z,5.17
2018-08-28T04:50:45.460Z,5.10
2018-08-28T04:53:18.879Z,5.10
2018-08-28T04:55:52.253Z,5.03
2018-08-28T04:58:25.720Z,6.45
2018-08-28T05:00:59.107Z,5.12
2018-08-28T05:03:32.552Z,4.95
2018-08-28T05:06:06.040Z,4.90
2018-08-28T05:08:39.424Z,5.50
2018-08-28T05:11:12.798Z,6.28
2018-08-28T05:13:46.200Z,5.47
2018-08-28T05:16:19.602Z,5.65
2018-08-28T05:18:53.002Z,6.15
2018-08-28T05:21:26.395Z,5.95
2018-08-28T05:23:59.790Z,6.03
2018-08-28T05:26:33.143Z,5.75
2018-08-28T05:29:06.606Z,5.22
2018-08-28T05:31:40.100Z,6.08
2018-08-28T05:34:13.476Z,6.20
2018-08-28T05:36:46.841Z,6.33
2018-08-28T05:39:20.249Z,6.00
2018-08-28T05:41:53.693Z,6.05
2018-08-28T05:44:27.116Z,6.12
2018-08-28T05:47:00.520Z,7.72
2018-08-28T05:49:33.984Z,6.80
2018-08-28T05:52:07.386Z,8.45
2018-08-28T05:54:40.795Z,6.50
2018-08-28T05:57:14.164Z,6.33
2018-08-28T05:59:47.592Z,6.08
2018-08-28T06:02:20.968Z,7.75
2018-08-28T06:04:54.365Z,6.28
2018-08-28T06:07:27.770Z,7.53
2018-08-28T06:10:01.182Z,7.25
2018-08-28T06:12:34.587Z,7.33
2018-08-28T06:15:08.137Z,6.50
2018-08-28T06:17:41.501Z,6.78
2018-08-28T06:20:14.903Z,7.15
2018-08-28T06:22:48.259Z,7.22
2018-08-28T06:25:21.620Z,7.60
2018-08-28T06:27:54.975Z,7.75
2018-08-28T06:30:28.387Z,7.28
2018-08-28T06:33:01.787Z,7.33
2018-08-28T06:35:35.232Z,7.03
2018-08-28T06:38:08.582Z,7.10
2018-08-28T06:40:41.960Z,9.83
2018-08-28T06:43:15.332Z,7.17
2018-08-28T06:45:48.719Z,7.15
2018-08-28T06:48:22.068Z,7.60
2018-08-28T06:50:55.457Z,6.85
2018-08-28T06:53:28.858Z,7.30
2018-08-28T06:56:02.297Z,6.75
2018-08-28T06:58:35.670Z,6.87
2018-08-28T07:01:09.057Z,6.45
2018-08-28T07:03:42.607Z,6.37
2018-08-28T07:06:16.005Z,7.15
2018-08-28T07:08:49.423Z,6.47
2018-08-28T07:11:25.816Z,5.80
2018-08-28T07:13:59.233Z,6.12
2018-08-28T07:16:32.637Z,5.62
2018-08-28T07:19:06.045Z,5.45
2018-08-28T07:21:39.466Z,5.90
2018-08-28T07:24:12.853Z,5.72
2018-08-28T07:26:46.247Z,5.80
2018-08-28T07:29:19.681Z,5.62
2018-08-28T07:31:53.190Z,5.53
2018-08-28T07:34:26.523Z,5.45
2018-08-28T07:36:59.923Z,5.10
2018-08-28T07:39:33.317Z,5.00
2018-08-28T07:42:06.724Z,4.67
2018-08-28T07:44:40.151Z,4.85
2018-08-28T07:47:13.552Z,5.00
2018-08-28T07:49:46.983Z,4.92
2018-08-28T07:52:20.349Z,4.28
2018-08-28T07:54:53.748Z,4.80
2018-08-28T07:57:27.194Z,4.72
2018-08-28T08:00:00.658Z,3.98
2018-08-28T08:02:34.039Z,4.53
2018-08-28T08:05:07.533Z,3.83
2018-08-28T08:07:41.036Z,4.08
2018-08-28T08:10:14.404Z,3.75
2018-08-28T08:12:47.873Z,4.03
2018-08-28T08:15:21.308Z,3.55
2018-08-28T08:17:54.674Z,3.42
2018-08-28T08:20:28.084Z,3.55
2018-08-28T08:23:01.684Z,3.02
2018-08-28T08:25:35.057Z,3.37
2018-08-28T08:28:08.596Z,2.83
2018-08-28T08:30:41.888Z,3.00
2018-08-28T08:33:15.272Z,2.67
2018-08-28T08:35:48.699Z,3.22
2018-08-28T08:38:22.081Z,3.20
2018-08-28T08:40:55.454Z,3.17
2018-08-28T08:43:28.849Z,3.15
2018-08-28T08:46:02.897Z,3.10
2018-08-28T08:48:36.283Z,2.80
2018-08-28T08:51:09.683Z,2.70
2018-08-28T08:53:43.065Z,2.67
2018-08-28T08:56:16.511Z,2.85
2018-08-28T08:58:49.871Z,2.77
2018-08-28T09:01:23.234Z,2.85
2018-08-28T09:03:56.636Z,2.87
2018-08-28T09:06:30.029Z,3.00
2018-08-28T09:09:03.569Z,2.75
2018-08-28T09:11:36.951Z,3.02
2018-08-28T09:14:10.310Z,2.58
2018-08-28T09:16:43.695Z,2.83
2018-08-28T09:19:17.058Z,2.67
2018-08-28T09:21:50.441Z,2.37
2018-08-28T09:24:23.823Z,2.62
2018-08-28T09:26:57.223Z,2.65
2018-08-28T09:29:30.627Z,2.90
2018-08-28T09:32:04.010Z,3.10
2018-08-28T09:34:37.373Z,2.67
2018-08-28T09:37:10.747Z,2.70
2018-08-28T09:39:44.109Z,2.70
2018-08-28T09:42:17.548Z,2.80
2018-08-28T09:44:50.919Z,2.77
2018-08-28T09:47:24.296Z,2.67
2018-08-28T09:49:57.734Z,2.50
2018-08-28T09:52:31.099Z,2.70
2018-08-28T09:55:04.544Z,2.95
2018-08-28T09:57:38.056Z,2.60
2018-08-28T10:00:16.455Z,2.67
2018-08-28T10:02:49.913Z,2.55
2018-08-28T10:05:23.428Z,2.70
2018-08-28T10:07:56.896Z,3.08
2018-08-28T10:10:30.279Z,2.52
2018-08-28T10:13:03.940Z,2.60
2018-08-28T10:15:37.305Z,2.80
2018-08-28T10:18:10.743Z,2.87
2018-08-28T10:20:44.135Z,2.70
2018-08-28T10:23:17.512Z,3.22
2018-08-28T10:25:50.916Z,2.70
2018-08-28T10:28:24.283Z,2.67
2018-08-28T10:30:57.677Z,2.70
2018-08-28T10:33:31.065Z,2.55
2018-08-28T10:36:04.486Z,2.50
2018-08-28T10:38:37.843Z,2.50
2018-08-28T10:41:11.237Z,2.98
2018-08-28T10:43:44.604Z,2.70
2018-08-28T10:46:18.058Z,2.83
2018-08-28T10:48:51.428Z,2.58
2018-08-28T10:51:24.866Z,2.72
2018-08-28T10:53:58.257Z,2.40
2018-08-28T10:56:31.684Z,2.22
2018-08-28T10:59:05.060Z,2.50
2018-08-28T11:01:38.462Z,2.65
2018-08-28T11:04:11.868Z,2.70
2018-08-28T11:06:45.298Z,2.77
2018-08-28T11:09:18.682Z,2.77
2018-08-28T11:11:52.080Z,3.00
2018-08-28T11:14:25.452Z,2.60
2018-08-28T11:16:58.941Z,2.65
2018-08-28T11:19:32.708Z,2.58
2018-08-28T11:22:06.108Z,2.50
2018-08-28T11:24:39.489Z,2.42
2018-08-28T11:27:12.914Z,2.52
2018-08-28T11:29:46.295Z,2.30
2018-08-28T11:32:19.692Z,2.90
2018-08-28T11:34:53.068Z,2.50
2018-08-28T11:37:26.476Z,2.40
2018-08-28T11:39:59.839Z,2.75
2018-08-28T11:42:33.219Z,2.58
2018-08-28T11:45:07.159Z,2.30
2018-08-28T11:47:40.575Z,2.40
2018-08-28T11:50:13.941Z,2.83
2018-08-28T11:52:47.384Z,2.25
2018-08-28T11:55:20.745Z,2.05
2018-08-28T11:57:54.119Z,2.45
2018-08-28T12:00:27.520Z,2.67
2018-08-28T12:03:01.160Z,2.60
2018-08-28T12:05:34.540Z,2.55
2018-08-28T12:08:07.936Z,2.58
2018-08-28T12:10:41.319Z,2.12
2018-08-28T12:13:14.744Z,2.58
2018-08-28T12:15:48.131Z,2.42
2018-08-28T12:18:21.531Z,2.40
2018-08-28T12:20:54.967Z,2.58
2018-08-28T12:23:28.326Z,2.58
2018-08-28T12:26:01.702Z,2.25
2018-08-28T12:28:35.164Z,2.50
2018-08-28T12:31:08.600Z,2.40
2018-08-28T12:33:41.993Z,2.55
2018-08-28T12:36:15.427Z,2.30
2018-08-28T12:38:48.861Z,3.05
2018-08-28T12:41:22.216Z,2.62
2018-08-28T12:43:55.718Z,2.40
2018-08-28T12:46:29.051Z,2.70
2018-08-28T12:49:02.477Z,2.50
2018-08-28T12:51:35.902Z,2.37
2018-08-28T12:54:09.334Z,2.10
2018-08-28T12:56:42.729Z,2.87
2018-08-28T12:59:16.144Z,2.40
2018-08-28T13:01:49.600Z,2.95
2018-08-28T13:04:23.053Z,2.62
2018-08-28T13:06:56.476Z,2.98
2018-08-28T13:09:29.845Z,2.92
2018-08-28T13:14:42.129Z,2.50
2018-08-28T13:17:15.506Z,2.30
2018-08-28T13:19:48.922Z,2.77
2018-08-28T13:22:22.308Z,2.67
2018-08-28T13:24:55.788Z,2.70
2018-08-28T13:27:29.241Z,2.67
2018-08-28T13:30:02.616Z,2.30
2018-08-28T13:32:35.972Z,2.70
2018-08-28T13:35:09.418Z,2.90
2018-08-28T13:37:43.111Z,2.75
2018-08-28T13:40:16.567Z,2.55
2018-08-28T13:42:49.930Z,2.60
2018-08-28T13:45:23.347Z,2.52
2018-08-28T13:47:56.726Z,2.65
2018-08-28T13:50:29.131Z,2.75
2018-08-28T13:53:02.581Z,2.92
2018-08-28T13:55:36.025Z,2.50
2018-08-28T13:58:09.404Z,2.45
2018-08-28T14:00:42.814Z,2.08
2018-08-28T14:03:16.207Z,3.02
2018-08-28T14:05:49.627Z,3.02
2018-08-28T14:08:23.016Z,3.00
2018-08-28T14:10:56.430Z,3.20
2018-08-28T14:13:29.866Z,3.52
2018-08-28T14:16:03.263Z,3.08
2018-08-28T14:18:36.709Z,3.60
2018-08-28T14:21:10.113Z,3.58
2018-08-28T14:23:43.528Z,3.65
2018-08-28T14:26:16.950Z,3.77
2018-08-28T14:28:50.462Z,3.60
2018-08-28T14:31:23.778Z,3.70
2018-08-28T14:33:57.211Z,3.80
2018-08-28T14:36:30.623Z,3.85
2018-08-28T14:39:05.197Z,3.58
2018-08-28T14:41:38.648Z,3.50
2018-08-28T14:44:12.085Z,3.95
2018-08-28T14:46:45.494Z,3.80
2018-08-28T14:49:18.874Z,3.42
2018-08-28T14:51:52.285Z,3.95
2018-08-28T14:54:25.734Z,3.70
2018-08-28T14:56:59.149Z,3.40
2018-08-28T14:59:32.586Z,3.40
2018-08-28T15:02:06.004Z,3.72
2018-08-28T15:04:39.413Z,3.83
2018-08-28T15:07:12.938Z,4.20
2018-08-28T15:09:46.315Z,3.47
2018-08-28T15:12:19.731Z,4.22
2018-08-28T15:14:53.120Z,4.55
2018-08-28T15:17:26.550Z,5.22
2018-08-28T15:20:00.557Z,5.03
2018-08-28T15:22:33.955Z,4.92
2018-08-28T15:25:07.708Z,5.92
2018-08-28T15:27:41.157Z,4.92
2018-08-28T15:30:14.479Z,4.80
2018-08-28T15:32:47.951Z,5.00
2018-08-28T15:35:21.285Z,4.80
2018-08-28T15:37:54.706Z,4.35
2018-08-28T15:40:28.083Z,4.12
2018-08-28T15:43:01.538Z,4.35
2018-08-28T15:45:34.889Z,4.67
2018-08-28T15:48:09.164Z,4.83
2018-08-28T15:50:42.587Z,4.37
2018-08-28T15:53:15.979Z,3.98
2018-08-28T15:55:49.385Z,4.65
2018-08-28T15:58:22.758Z,4.72
2018-08-28T16:00:56.167Z,4.55
2018-08-28T16:03:29.529Z,4.72
2018-08-28T16:06:03.028Z,4.55
2018-08-28T16:08:36.396Z,4.70
2018-08-28T16:11:09.947Z,4.67
2018-08-28T16:13:43.388Z,4.25
2018-08-28T16:16:16.953Z,4.30
2018-08-28T16:18:50.997Z,4.55
2018-08-28T16:21:27.923Z,4.87
2018-08-28T16:24:01.316Z,4.28
2018-08-28T16:26:34.694Z,4.25
2018-08-28T16:29:08.062Z,4.53
2018-08-28T16:31:41.452Z,4.37
2018-08-28T16:34:14.859Z,5.47
2018-08-28T16:36:48.221Z,5.03
2018-08-28T16:39:21.633Z,4.85
2018-08-28T16:41:55.028Z,5.12
2018-08-28T16:44:28.450Z,4.50
2018-08-28T16:47:01.886Z,4.42
2018-08-28T16:49:35.318Z,4.85
2018-08-28T16:52:08.815Z,4.85
2018-08-28T16:54:42.209Z,4.70
2018-08-28T16:57:15.962Z,4.35
2018-08-28T16:59:49.395Z,4.80
2018-08-28T17:02:23.350Z,4.55
2018-08-28T17:04:56.790Z,4.80
2018-08-28T17:07:30.325Z,4.85
2018-08-28T17:10:03.681Z,5.10
2018-08-28T17:12:37.844Z,4.70
2018-08-28T17:15:11.263Z,4.22
2018-08-28T17:17:44.605Z,4.92
2018-08-28T17:20:17.949Z,4.90
2018-08-28T17:22:51.321Z,4.83
2018-08-28T17:25:24.696Z,4.87
2018-08-28T17:27:58.110Z,4.78
2018-08-28T17:30:32.486Z,4.42
2018-08-28T17:33:06.214Z,5.00
2018-08-28T17:35:39.595Z,5.15
2018-08-28T17:38:12.956Z,4.83
2018-08-28T17:40:46.351Z,4.72
2018-08-28T17:43:19.864Z,4.72
2018-08-28T17:45:53.271Z,4.92
2018-08-28T17:48:26.624Z,5.00
2018-08-28T17:51:00.000Z,4.78
2018-08-28T17:53:33.548Z,5.03
2018-08-28T17:56:06.975Z,6.22
2018-08-28T17:58:40.417Z,5.22
2018-08-28T18:01:13.859Z,5.10
2018-08-28T18:03:47.260Z,5.37
2018-08-28T18:06:20.616Z,5.20
2018-08-28T18:08:53.978Z,4.83
2018-08-28T18:11:28.217Z,5.20
2018-08-28T18:14:04.422Z,5.00
2018-08-28T18:16:40.670Z,5.05
2018-08-28T18:19:14.135Z,4.50
2018-08-28T18:21:47.546Z,5.50
2018-08-28T18:24:20.894Z,5.00
2018-08-28T18:26:54.768Z,4.90
2018-08-28T18:29:28.163Z,5.10
2018-08-28T18:32:02.753Z,5.08
2018-08-28T18:34:36.226Z,5.20
2018-08-28T18:37:10.026Z,4.78
2018-08-28T18:39:43.436Z,6.42
2018-08-28T18:42:16.787Z,5.25
2018-08-28T18:44:50.156Z,5.17
2018-08-28T18:47:23.532Z,4.53
2018-08-28T18:49:56.909Z,4.87
2018-08-28T18:52:31.021Z,5.00
2018-08-28T18:55:04.383Z,5.15
2018-08-28T18:57:37.771Z,4.67
2018-08-28T19:00:11.164Z,5.08
2018-08-28T19:02:44.573Z,5.10
2018-08-28T19:05:17.954Z,5.10
2018-08-28T19:07:51.401Z,5.03
2018-08-28T19:10:24.719Z,5.92
2018-08-28T19:12:59.013Z,5.03
2018-08-28T19:15:33.089Z,4.92
2018-08-28T19:18:06.480Z,5.35
2018-08-28T19:20:39.954Z,5.30
2018-08-28T19:23:13.729Z,5.60
2018-08-28T19:25:47.112Z,5.80
2018-08-28T19:28:20.560Z,6.17
2018-08-28T19:30:54.752Z,5.28
2018-08-28T19:33:28.895Z,6.25
2018-08-28T19:36:02.527Z,5.97
2018-08-28T19:38:36.429Z,5.83
2018-08-28T19:41:10.032Z,5.60
2018-08-28T19:43:43.414Z,5.00
2018-08-28T19:46:17.050Z,5.55
2018-08-28T19:48:50.436Z,4.97
2018-08-28T19:51:25.471Z,5.33
2018-08-28T19:53:59.471Z,6.05
2018-08-28T19:56:33.119Z,5.85
2018-08-28T19:59:06.592Z,6.25
2018-08-28T20:01:39.946Z,6.25
2018-08-28T20:04:13.400Z,5.95
2018-08-28T20:06:46.805Z,5.67
2018-08-28T20:09:20.200Z,5.50
2018-08-28T20:11:53.589Z,5.67
2018-08-28T20:14:27.043Z,5.80
2018-08-28T20:17:00.412Z,5.58
2018-08-28T20:19:33.840Z,6.03
2018-08-28T20:22:09.180Z,5.65
2018-08-28T20:24:42.595Z,5.37
2018-08-28T20:27:16.087Z,4.95
2018-08-28T20:29:49.446Z,5.60
2018-08-28T20:32:22.852Z,5.97
2018-08-28T20:34:56.242Z,6.55
2018-08-28T20:37:29.734Z,6.12
2018-08-28T20:40:03.132Z,6.08
2018-08-28T20:42:36.649Z,5.67
2018-08-28T20:45:10.080Z,5.47
2018-08-28T20:47:43.456Z,5.70
2018-08-28T20:50:16.886Z,6.12
2018-08-28T20:52:50.309Z,6.05
2018-08-28T20:55:23.748Z,5.75
2018-08-28T20:57:57.255Z,5.37
2018-08-28T21:00:30.684Z,5.78
2018-08-28T21:03:04.562Z,5.45
2018-08-28T21:05:38.007Z,5.78
2018-08-28T21:08:11.419Z,5.65
2018-08-28T21:10:44.829Z,5.30
2018-08-28T21:13:18.275Z,5.78
2018-08-28T21:15:51.712Z,6.28
2018-08-28T21:18:25.185Z,6.25
2018-08-28T21:20:58.656Z,6.87
2018-08-28T21:23:32.071Z,6.12
2018-08-28T21:26:05.691Z,7.80
2018-08-28T21:28:39.085Z,6.40
2018-08-28T21:31:12.505Z,7.70
2018-08-28T21:33:45.920Z,5.80
2018-08-28T21:36:19.568Z,6.60
2018-08-28T21:38:52.902Z,5.72
2018-08-28T21:41:26.253Z,5.65
2018-08-28T21:43:59.590Z,6.08
2018-08-28T21:46:32.921Z,6.17
2018-08-28T21:49:06.774Z,6.53
2018-08-28T21:51:40.109Z,6.28
2018-08-28T21:54:13.418Z,5.40
2018-08-28T21:56:46.741Z,5.80
2018-08-28T21:59:20.066Z,6.55
2018-08-28T22:01:53.417Z,6.50
2018-08-28T22:04:26.765Z,6.42
2018-08-28T22:07:05.496Z,6.53
2018-08-28T22:09:38.913Z,6.05
2018-08-28T22:12:12.221Z,5.75
2018-08-28T22:14:45.679Z,6.42
2018-08-28T22:17:19.039Z,5.72
2018-08-28T22:19:52.334Z,5.70
2018-08-28T22:22:25.650Z,7.00
2018-08-28T22:24:59.005Z,6.47
2018-08-28T22:27:32.325Z,7.20
2018-08-28T22:30:07.054Z,6.62
2018-08-28T22:32:41.445Z,5.70
2018-08-28T22:35:14.757Z,5.28
2018-08-28T22:37:48.274Z,5.70
2018-08-28T22:40:22.046Z,6.05
2018-08-28T22:42:55.583Z,6.42
2018-08-28T22:45:29.866Z,6.30
2018-08-28T22:48:03.372Z,5.83
2018-08-28T22:50:36.960Z,5.70
2018-08-28T22:53:10.475Z,6.65
2018-08-28T22:55:44.028Z,5.85
2018-08-28T22:58:17.562Z,5.30
2018-08-28T23:00:50.879Z,5.47
2018-08-28T23:03:24.408Z,6.78
2018-08-28T23:05:57.773Z,5.65
2018-08-28T23:08:31.131Z,7.00
2018-08-28T23:11:04.605Z,7.35
2018-08-28T23:13:37.945Z,5.00
2018-08-28T23:16:11.253Z,5.78
2018-08-28T23:18:44.607Z,5.60
2018-08-28T23:21:18.002Z,7.37
2018-08-28T23:23:51.393Z,5.60
2018-08-28T23:26:24.706Z,7.20
2018-08-28T23:28:58.893Z,5.53
2018-08-28T23:31:32.218Z,5.12
2018-08-28T23:34:05.548Z,6.60
2018-08-28T23:36:39.162Z,6.30
2018-08-28T23:39:12.549Z,7.12
2018-08-28T23:41:46.889Z,5.37
2018-08-28T23:44:20.397Z,5.55
2018-08-28T23:46:53.700Z,5.30
2018-08-28T23:49:27.170Z,5.25
2018-08-28T23:52:00.468Z,4.75
2018-08-28T23:54:33.827Z,6.33
2018-08-28T23:57:07.147Z,6.80
2018-08-28T23:59:40.849Z,5.62
